Terminal Aerodrome Forecast
Issued by NWS

Home | Current Version | Previous Version | Text Only | Print | Product List | Glossary On
Versions: 1 2 3 4 5 6 7 8 9 10 11 12 13
000
FTUS43 KDTX 061723
TAFDET
TAF
KDET 061723Z 0618/0718 18009KT P6SM SCT040 SCT250
     FM070900 21010KT P6SM SCT060 BKN120
     FM071200 22010KT P6SM BKN060 OVC100
     FM071400 23011KT 6SM -SHRA BKN040 OVC080=

USA.gov is the U.S. government's official web portal to all federal, state and local government web resources and services.